sensor_id;sensor_type;location;lat;lon;timestamp;P1;durP1;ratioP1;P2;durP2;ratioP2
595;SDS011;19946;49.306;11.350;2022-12-17T00:01:59;20.27;;;19.67;;
595;SDS011;19946;49.306;11.350;2022-12-17T00:17:49;21.00;;;20.40;;
595;SDS011;19946;49.306;11.350;2022-12-17T00:21:41;20.47;;;19.87;;
595;SDS011;19946;49.306;11.350;2022-12-17T00:25:01;19.73;;;19.13;;
595;SDS011;19946;49.306;11.350;2022-12-17T00:28:34;19.50;;;18.90;;
595;SDS011;19946;49.306;11.350;2022-12-17T00:36:38;20.80;;;20.20;;
595;SDS011;19946;49.306;11.350;2022-12-17T00:40:35;19.50;;;18.90;;
595;SDS011;19946;49.306;11.350;2022-12-17T00:54:35;21.53;;;20.83;;
595;SDS011;19946;49.306;11.350;2022-12-17T00:58:04;20.63;;;20.03;;
595;SDS011;19946;49.306;11.350;2022-12-17T01:01:58;22.10;;;21.40;;
595;SDS011;19946;49.306;11.350;2022-12-17T01:06:25;21.00;;;20.40;;
595;SDS011;19946;49.306;11.350;2022-12-17T01:26:45;20.70;;;20.10;;
595;SDS011;19946;49.306;11.350;2022-12-17T01:30:08;21.97;;;21.27;;
595;SDS011;19946;49.306;11.350;2022-12-17T01:36:59;20.73;;;20.13;;
595;SDS011;19946;49.306;11.350;2022-12-17T01:40:24;21.60;;;20.90;;
595;SDS011;19946;49.306;11.350;2022-12-17T02:31:08;19.80;;;19.20;;
595;SDS011;19946;49.306;11.350;2022-12-17T02:34:30;18.60;;;18.10;;
595;SDS011;19946;49.306;11.350;2022-12-17T02:37:50;19.20;;;18.70;;
595;SDS011;19946;49.306;11.350;2022-12-17T02:41:50;18.67;;;18.17;;
595;SDS011;19946;49.306;11.350;2022-12-17T02:46:14;19.10;;;18.60;;
595;SDS011;19946;49.306;11.350;2022-12-17T02:49:42;19.63;;;19.03;;
595;SDS011;19946;49.306;11.350;2022-12-17T02:57:47;18.60;;;18.10;;
595;SDS011;19946;49.306;11.350;2022-12-17T03:01:29;18.70;;;18.20;;
595;SDS011;19946;49.306;11.350;2022-12-17T03:05:30;19.20;;;18.60;;
595;SDS011;19946;49.306;11.350;2022-12-17T03:09:19;19.60;;;19.00;;
595;SDS011;19946;49.306;11.350;2022-12-17T03:17:22;19.33;;;18.73;;
595;SDS011;19946;49.306;11.350;2022-12-17T03:20:54;19.40;;;18.80;;
595;SDS011;19946;49.306;11.350;2022-12-17T03:24:42;18.60;;;18.10;;
595;SDS011;19946;49.306;11.350;2022-12-17T03:28:25;19.23;;;18.63;;
595;SDS011;19946;49.306;11.350;2022-12-17T03:32:45;19.60;;;19.00;;
595;SDS011;19946;49.306;11.350;2022-12-17T03:36:58;19.63;;;19.03;;
595;SDS011;19946;49.306;11.350;2022-12-17T03:49:24;18.50;;;18.00;;
595;SDS011;19946;49.306;11.350;2022-12-17T04:22:19;19.15;;;18.55;;
595;SDS011;19946;49.306;11.350;2022-12-17T06:23:49;17.65;;;17.15;;
595;SDS011;19946;49.306;11.350;2022-12-17T06:27:41;18.02;;;17.52;;
595;SDS011;19946;49.306;11.350;2022-12-17T06:31:01;17.25;;;16.75;;
595;SDS011;19946;49.306;11.350;2022-12-17T06:34:20;17.90;;;17.40;;
595;SDS011;19946;49.306;11.350;2022-12-17T06:38:10;17.27;;;16.77;;
595;SDS011;19946;49.306;11.350;2022-12-17T06:42:15;16.60;;;16.20;;
595;SDS011;19946;49.306;11.350;2022-12-17T06:45:37;17.80;;;17.30;;
595;SDS011;19946;49.306;11.350;2022-12-17T06:49:23;18.00;;;17.50;;
595;SDS011;19946;49.306;11.350;2022-12-17T06:52:46;17.55;;;17.05;;
595;SDS011;19946;49.306;11.350;2022-12-17T06:56:07;16.90;;;16.50;;
595;SDS011;19946;49.306;11.350;2022-12-17T06:59:40;22.50;;;21.80;;
595;SDS011;19946;49.306;11.350;2022-12-17T07:03:31;18.52;;;18.02;;
595;SDS011;19946;49.306;11.350;2022-12-17T07:06:50;18.27;;;17.77;;
595;SDS011;19946;49.306;11.350;2022-12-17T07:10:10;18.25;;;17.75;;
595;SDS011;19946;49.306;11.350;2022-12-17T07:13:29;17.80;;;17.30;;
595;SDS011;19946;49.306;11.350;2022-12-17T07:16:47;17.80;;;17.30;;
595;SDS011;19946;49.306;11.350;2022-12-17T07:20:08;17.88;;;17.38;;
595;SDS011;19946;49.306;11.350;2022-12-17T07:23:28;17.65;;;17.15;;
595;SDS011;19946;49.306;11.350;2022-12-17T07:26:47;17.75;;;17.25;;
595;SDS011;19946;49.306;11.350;2022-12-17T07:30:06;19.58;;;18.98;;
595;SDS011;19946;49.306;11.350;2022-12-17T07:33:25;19.48;;;18.88;;
595;SDS011;19946;49.306;11.350;2022-12-17T07:36:44;18.83;;;18.33;;
595;SDS011;19946;49.306;11.350;2022-12-17T07:40:04;17.95;;;17.45;;
595;SDS011;19946;49.306;11.350;2022-12-17T07:43:24;17.80;;;17.30;;
595;SDS011;19946;49.306;11.350;2022-12-17T07:46:43;17.88;;;17.38;;
595;SDS011;19946;49.306;11.350;2022-12-17T07:50:02;18.15;;;17.65;;
595;SDS011;19946;49.306;11.350;2022-12-17T07:53:21;18.27;;;17.77;;
595;SDS011;19946;49.306;11.350;2022-12-17T07:56:40;18.20;;;17.70;;
595;SDS011;19946;49.306;11.350;2022-12-17T07:59:59;18.92;;;18.42;;
595;SDS011;19946;49.306;11.350;2022-12-17T08:03:18;19.23;;;18.73;;
595;SDS011;19946;49.306;11.350;2022-12-17T08:06:37;19.27;;;18.77;;
595;SDS011;19946;49.306;11.350;2022-12-17T08:09:56;20.02;;;19.42;;
595;SDS011;19946;49.306;11.350;2022-12-17T08:13:15;19.30;;;18.70;;
595;SDS011;19946;49.306;11.350;2022-12-17T08:16:34;20.75;;;20.15;;
595;SDS011;19946;49.306;11.350;2022-12-17T08:19:53;20.13;;;19.52;;
595;SDS011;19946;49.306;11.350;2022-12-17T08:23:11;20.17;;;19.58;;
595;SDS011;19946;49.306;11.350;2022-12-17T08:26:31;21.45;;;20.75;;
595;SDS011;19946;49.306;11.350;2022-12-17T08:30:07;21.77;;;21.08;;
595;SDS011;19946;49.306;11.350;2022-12-17T08:33:31;21.98;;;21.27;;
595;SDS011;19946;49.306;11.350;2022-12-17T08:36:51;21.75;;;21.05;;
595;SDS011;19946;49.306;11.350;2022-12-17T08:40:15;20.90;;;20.20;;
595;SDS011;19946;49.306;11.350;2022-12-17T08:43:38;23.75;;;22.95;;
595;SDS011;19946;49.306;11.350;2022-12-17T08:47:02;23.80;;;23.00;;
595;SDS011;19946;49.306;11.350;2022-12-17T08:50:56;24.60;;;23.80;;
595;SDS011;19946;49.306;11.350;2022-12-17T08:54:21;24.63;;;23.83;;
595;SDS011;19946;49.306;11.350;2022-12-17T08:57:41;25.73;;;24.85;;
595;SDS011;19946;49.306;11.350;2022-12-17T09:01:21;24.00;;;23.20;;
595;SDS011;19946;49.306;11.350;2022-12-17T09:05:14;28.53;;;27.53;;
595;SDS011;19946;49.306;11.350;2022-12-17T09:09:01;28.80;;;27.80;;
595;SDS011;19946;49.306;11.350;2022-12-17T09:12:25;29.00;;;27.90;;
595;SDS011;19946;49.306;11.350;2022-12-17T09:15:50;29.50;;;28.40;;
595;SDS011;19946;49.306;11.350;2022-12-17T09:19:14;29.27;;;28.17;;
595;SDS011;19946;49.306;11.350;2022-12-17T09:22:57;26.13;;;25.20;;
595;SDS011;19946;49.306;11.350;2022-12-17T09:27:07;26.37;;;25.37;;
595;SDS011;19946;49.306;11.350;2022-12-17T09:31:00;25.53;;;24.63;;
595;SDS011;19946;49.306;11.350;2022-12-17T09:34:54;25.33;;;24.43;;
595;SDS011;19946;49.306;11.350;2022-12-17T09:38:26;26.50;;;25.50;;
595;SDS011;19946;49.306;11.350;2022-12-17T09:45:39;26.67;;;25.67;;
595;SDS011;19946;49.306;11.350;2022-12-17T09:49:14;26.67;;;25.67;;
595;SDS011;19946;49.306;11.350;2022-12-17T09:52:38;27.93;;;26.83;;
595;SDS011;19946;49.306;11.350;2022-12-17T09:56:01;27.80;;;26.70;;
595;SDS011;19946;49.306;11.350;2022-12-17T09:59:23;29.13;;;27.97;;
595;SDS011;19946;49.306;11.350;2022-12-17T10:02:46;27.83;;;26.73;;
595;SDS011;19946;49.306;11.350;2022-12-17T10:06:12;28.87;;;27.67;;
595;SDS011;19946;49.306;11.350;2022-12-17T10:09:39;28.33;;;27.23;;
595;SDS011;19946;49.306;11.350;2022-12-17T10:12:59;28.33;;;27.23;;
595;SDS011;19946;49.306;11.350;2022-12-17T10:16:29;27.87;;;26.77;;
595;SDS011;19946;49.306;11.350;2022-12-17T10:19:55;28.13;;;27.03;;
595;SDS011;19946;49.306;11.350;2022-12-17T10:23:22;28.67;;;27.57;;
595;SDS011;19946;49.306;11.350;2022-12-17T10:26:49;29.47;;;28.27;;
595;SDS011;19946;49.306;11.350;2022-12-17T10:30:27;28.60;;;27.40;;
595;SDS011;19946;49.306;11.350;2022-12-17T10:34:26;29.70;;;28.50;;
595;SDS011;19946;49.306;11.350;2022-12-17T10:37:58;29.40;;;28.20;;
595;SDS011;19946;49.306;11.350;2022-12-17T10:41:49;27.83;;;26.73;;
595;SDS011;19946;49.306;11.350;2022-12-17T10:45:33;28.10;;;27.10;;
595;SDS011;19946;49.306;11.350;2022-12-17T10:49:07;22.97;;;22.17;;
595;SDS011;19946;49.306;11.350;2022-12-17T10:52:31;21.50;;;20.80;;
595;SDS011;19946;49.306;11.350;2022-12-17T10:55:52;21.57;;;20.87;;
595;SDS011;19946;49.306;11.350;2022-12-17T10:59:21;21.50;;;20.80;;
595;SDS011;19946;49.306;11.350;2022-12-17T11:02:49;21.63;;;20.93;;
595;SDS011;19946;49.306;11.350;2022-12-17T11:06:10;21.80;;;21.10;;
595;SDS011;19946;49.306;11.350;2022-12-17T11:13:06;21.30;;;20.60;;
595;SDS011;19946;49.306;11.350;2022-12-17T11:16:29;21.17;;;20.47;;
595;SDS011;19946;49.306;11.350;2022-12-17T11:23:16;20.70;;;20.00;;
595;SDS011;19946;49.306;11.350;2022-12-17T11:26:37;21.00;;;20.30;;
595;SDS011;19946;49.306;11.350;2022-12-17T11:30:10;20.60;;;19.90;;
595;SDS011;19946;49.306;11.350;2022-12-17T11:33:45;20.60;;;20.00;;
595;SDS011;19946;49.306;11.350;2022-12-17T11:37:36;21.10;;;20.40;;
595;SDS011;19946;49.306;11.350;2022-12-17T11:41:26;21.00;;;20.30;;
595;SDS011;19946;49.306;11.350;2022-12-17T11:56:42;21.10;;;20.40;;
595;SDS011;19946;49.306;11.350;2022-12-17T12:03:37;21.20;;;20.50;;
595;SDS011;19946;49.306;11.350;2022-12-17T12:07:25;21.70;;;21.00;;
595;SDS011;19946;49.306;11.350;2022-12-17T12:18:59;20.33;;;19.73;;
595;SDS011;19946;49.306;11.350;2022-12-17T12:26:18;19.97;;;19.37;;
595;SDS011;19946;49.306;11.350;2022-12-17T12:29:42;20.23;;;19.63;;
595;SDS011;19946;49.306;11.350;2022-12-17T12:36:52;19.83;;;19.23;;
595;SDS011;19946;49.306;11.350;2022-12-17T12:40:46;19.70;;;19.10;;
595;SDS011;19946;49.306;11.350;2022-12-17T12:44:58;19.10;;;18.50;;
595;SDS011;19946;49.306;11.350;2022-12-17T12:52:22;18.40;;;17.90;;
595;SDS011;19946;49.306;11.350;2022-12-17T12:55:46;18.80;;;18.30;;
595;SDS011;19946;49.306;11.350;2022-12-17T12:59:24;19.00;;;18.40;;
595;SDS011;19946;49.306;11.350;2022-12-17T13:02:45;18.80;;;18.30;;
595;SDS011;19946;49.306;11.350;2022-12-17T13:06:04;18.80;;;18.30;;
595;SDS011;19946;49.306;11.350;2022-12-17T13:09:16;18.90;;;18.40;;
595;SDS011;19946;49.306;11.350;2022-12-17T13:12:23;19.30;;;18.70;;
595;SDS011;19946;49.306;11.350;2022-12-17T13:15:35;20.10;;;19.50;;
595;SDS011;19946;49.306;11.350;2022-12-17T13:18:42;20.13;;;19.53;;
595;SDS011;19946;49.306;11.350;2022-12-17T13:21:43;20.50;;;19.90;;
595;SDS011;19946;49.306;11.350;2022-12-17T13:24:44;20.97;;;20.27;;
595;SDS011;19946;49.306;11.350;2022-12-17T13:27:47;20.80;;;20.10;;
595;SDS011;19946;49.306;11.350;2022-12-17T13:30:49;21.00;;;20.30;;
595;SDS011;19946;49.306;11.350;2022-12-17T13:43:53;21.13;;;20.43;;
595;SDS011;19946;49.306;11.350;2022-12-17T13:46:56;21.00;;;20.30;;
595;SDS011;19946;49.306;11.350;2022-12-17T13:49:59;23.30;;;22.60;;
595;SDS011;19946;49.306;11.350;2022-12-17T13:53:10;21.10;;;20.50;;
595;SDS011;19946;49.306;11.350;2022-12-17T13:56:13;21.30;;;20.60;;
595;SDS011;19946;49.306;11.350;2022-12-17T13:59:17;20.30;;;19.70;;
595;SDS011;19946;49.306;11.350;2022-12-17T14:02:28;19.30;;;18.70;;
595;SDS011;19946;49.306;11.350;2022-12-17T14:05:31;18.10;;;17.60;;
595;SDS011;19946;49.306;11.350;2022-12-17T14:08:37;18.93;;;18.43;;
595;SDS011;19946;49.306;11.350;2022-12-17T14:11:39;19.40;;;18.80;;
595;SDS011;19946;49.306;11.350;2022-12-17T14:14:59;19.63;;;19.03;;
595;SDS011;19946;49.306;11.350;2022-12-17T14:18:03;22.37;;;21.67;;
595;SDS011;19946;49.306;11.350;2022-12-17T14:21:04;19.40;;;18.80;;
595;SDS011;19946;49.306;11.350;2022-12-17T14:24:05;19.90;;;19.30;;
595;SDS011;19946;49.306;11.350;2022-12-17T14:27:17;20.40;;;19.80;;
595;SDS011;19946;49.306;11.350;2022-12-17T14:30:36;24.43;;;23.70;;
595;SDS011;19946;49.306;11.350;2022-12-17T14:33:42;20.60;;;20.00;;
595;SDS011;19946;49.306;11.350;2022-12-17T14:36:44;20.70;;;20.10;;
595;SDS011;19946;49.306;11.350;2022-12-17T14:39:46;21.90;;;21.20;;
595;SDS011;19946;49.306;11.350;2022-12-17T14:42:48;21.53;;;20.83;;
595;SDS011;19946;49.306;11.350;2022-12-17T14:45:53;20.80;;;20.20;;
595;SDS011;19946;49.306;11.350;2022-12-17T14:49:16;19.93;;;19.33;;
595;SDS011;19946;49.306;11.350;2022-12-17T14:52:38;20.40;;;19.80;;
595;SDS011;19946;49.306;11.350;2022-12-17T14:58:57;22.93;;;22.23;;
595;SDS011;19946;49.306;11.350;2022-12-17T15:02:12;22.80;;;22.10;;
595;SDS011;19946;49.306;11.350;2022-12-17T15:05:20;23.10;;;22.40;;
595;SDS011;19946;49.306;11.350;2022-12-17T15:08:20;21.40;;;20.77;;
595;SDS011;19946;49.306;11.350;2022-12-17T15:11:21;20.70;;;20.10;;
595;SDS011;19946;49.306;11.350;2022-12-17T15:14:22;20.90;;;20.30;;
595;SDS011;19946;49.306;11.350;2022-12-17T15:17:24;21.33;;;20.73;;
595;SDS011;19946;49.306;11.350;2022-12-17T15:20:25;20.63;;;20.03;;
595;SDS011;19946;49.306;11.350;2022-12-17T15:23:26;20.50;;;19.90;;
595;SDS011;19946;49.306;11.350;2022-12-17T15:26:27;19.33;;;18.83;;
595;SDS011;19946;49.306;11.350;2022-12-17T15:29:28;19.67;;;19.07;;
595;SDS011;19946;49.306;11.350;2022-12-17T15:32:50;20.23;;;19.63;;
595;SDS011;19946;49.306;11.350;2022-12-17T15:35:57;20.50;;;19.90;;
595;SDS011;19946;49.306;11.350;2022-12-17T15:39:03;17.00;;;16.50;;
595;SDS011;19946;49.306;11.350;2022-12-17T15:45:27;17.60;;;17.10;;
595;SDS011;19946;49.306;11.350;2022-12-17T17:41:32;15.40;;;15.00;;
595;SDS011;19946;49.306;11.350;2022-12-17T17:44:38;15.48;;;15.07;;
595;SDS011;19946;49.306;11.350;2022-12-17T17:47:39;15.93;;;15.52;;
595;SDS011;19946;49.306;11.350;2022-12-17T17:50:40;13.40;;;13.10;;
595;SDS011;19946;49.306;11.350;2022-12-17T17:53:44;13.30;;;13.00;;
595;SDS011;19946;49.306;11.350;2022-12-17T17:56:47;15.45;;;15.05;;
595;SDS011;19946;49.306;11.350;2022-12-17T17:59:49;15.20;;;14.80;;
595;SDS011;19946;49.306;11.350;2022-12-17T18:02:49;15.43;;;15.03;;
595;SDS011;19946;49.306;11.350;2022-12-17T18:05:50;15.83;;;15.43;;
595;SDS011;19946;49.306;11.350;2022-12-17T18:08:51;15.10;;;14.73;;
595;SDS011;19946;49.306;11.350;2022-12-17T18:11:54;13.85;;;13.55;;
595;SDS011;19946;49.306;11.350;2022-12-17T18:14:54;13.57;;;13.27;;
595;SDS011;19946;49.306;11.350;2022-12-17T18:17:55;14.67;;;14.37;;
595;SDS011;19946;49.306;11.350;2022-12-17T18:21:03;15.20;;;14.80;;
595;SDS011;19946;49.306;11.350;2022-12-17T18:24:19;16.40;;;16.00;;
595;SDS011;19946;49.306;11.350;2022-12-17T18:27:22;14.70;;;14.40;;
595;SDS011;19946;49.306;11.350;2022-12-17T18:30:22;14.27;;;13.97;;
595;SDS011;19946;49.306;11.350;2022-12-17T18:33:23;13.10;;;12.80;;
595;SDS011;19946;49.306;11.350;2022-12-17T18:59:33;16.60;;;16.20;;
595;SDS011;19946;49.306;11.350;2022-12-17T19:02:34;16.70;;;16.30;;
595;SDS011;19946;49.306;11.350;2022-12-17T19:05:38;16.38;;;15.98;;
595;SDS011;19946;49.306;11.350;2022-12-17T19:34:56;16.60;;;16.20;;
595;SDS011;19946;49.306;11.350;2022-12-17T19:37:57;15.52;;;15.13;;
595;SDS011;19946;49.306;11.350;2022-12-17T19:41:02;14.57;;;14.27;;
595;SDS011;19946;49.306;11.350;2022-12-17T19:44:14;14.10;;;13.80;;
595;SDS011;19946;49.306;11.350;2022-12-17T19:47:16;13.00;;;12.70;;
595;SDS011;19946;49.306;11.350;2022-12-17T19:50:17;16.00;;;15.60;;
595;SDS011;19946;49.306;11.350;2022-12-17T19:53:18;14.23;;;13.93;;
595;SDS011;19946;49.306;11.350;2022-12-17T19:56:34;16.65;;;16.25;;
595;SDS011;19946;49.306;11.350;2022-12-17T19:59:36;17.50;;;17.10;;
595;SDS011;19946;49.306;11.350;2022-12-17T20:02:37;15.18;;;14.85;;
595;SDS011;19946;49.306;11.350;2022-12-17T20:05:41;13.85;;;13.55;;
595;SDS011;19946;49.306;11.350;2022-12-17T20:08:46;13.75;;;13.45;;
595;SDS011;19946;49.306;11.350;2022-12-17T20:11:49;14.38;;;14.07;;
595;SDS011;19946;49.306;11.350;2022-12-17T20:14:50;14.65;;;14.35;;
595;SDS011;19946;49.306;11.350;2022-12-17T20:17:51;16.92;;;16.52;;
595;SDS011;19946;49.306;11.350;2022-12-17T20:20:59;16.20;;;15.80;;
595;SDS011;19946;49.306;11.350;2022-12-17T20:24:03;16.88;;;16.48;;
595;SDS011;19946;49.306;11.350;2022-12-17T20:27:05;17.70;;;17.30;;
595;SDS011;19946;49.306;11.350;2022-12-17T20:30:06;13.70;;;13.40;;
595;SDS011;19946;49.306;11.350;2022-12-17T20:33:07;14.00;;;13.70;;
595;SDS011;19946;49.306;11.350;2022-12-17T20:36:09;15.20;;;14.80;;
595;SDS011;19946;49.306;11.350;2022-12-17T20:39:13;13.70;;;13.40;;
595;SDS011;19946;49.306;11.350;2022-12-17T20:42:15;16.65;;;16.25;;
595;SDS011;19946;49.306;11.350;2022-12-17T20:45:17;18.90;;;18.40;;
595;SDS011;19946;49.306;11.350;2022-12-17T20:48:18;16.85;;;16.45;;
595;SDS011;19946;49.306;11.350;2022-12-17T20:51:22;19.40;;;18.90;;
595;SDS011;19946;49.306;11.350;2022-12-17T20:54:24;19.95;;;19.45;;
595;SDS011;19946;49.306;11.350;2022-12-17T20:57:24;19.93;;;19.43;;
595;SDS011;19946;49.306;11.350;2022-12-17T21:00:26;17.63;;;17.23;;
595;SDS011;19946;49.306;11.350;2022-12-17T21:03:28;12.93;;;12.63;;
595;SDS011;19946;49.306;11.350;2022-12-17T21:06:30;11.95;;;11.75;;
595;SDS011;19946;49.306;11.350;2022-12-17T21:09:48;13.02;;;12.73;;
595;SDS011;19946;49.306;11.350;2022-12-17T21:12:49;13.57;;;13.27;;
595;SDS011;19946;49.306;11.350;2022-12-17T21:16:10;13.95;;;13.65;;
595;SDS011;19946;49.306;11.350;2022-12-17T21:19:16;13.88;;;13.57;;
595;SDS011;19946;49.306;11.350;2022-12-17T21:22:18;14.10;;;13.80;;
595;SDS011;19946;49.306;11.350;2022-12-17T21:25:20;14.07;;;13.77;;
595;SDS011;19946;49.306;11.350;2022-12-17T21:28:21;14.30;;;14.00;;
595;SDS011;19946;49.306;11.350;2022-12-17T21:31:23;19.15;;;18.65;;
595;SDS011;19946;49.306;11.350;2022-12-17T21:34:37;18.95;;;18.45;;
595;SDS011;19946;49.306;11.350;2022-12-17T21:37:39;18.27;;;17.80;;
595;SDS011;19946;49.306;11.350;2022-12-17T21:40:40;18.98;;;18.48;;
595;SDS011;19946;49.306;11.350;2022-12-17T21:43:44;18.60;;;18.10;;
595;SDS011;19946;49.306;11.350;2022-12-17T21:46:45;17.55;;;17.15;;
595;SDS011;19946;49.306;11.350;2022-12-17T21:49:47;17.52;;;17.13;;
595;SDS011;19946;49.306;11.350;2022-12-17T21:52:48;19.02;;;18.52;;
595;SDS011;19946;49.306;11.350;2022-12-17T21:56:00;19.20;;;18.70;;
595;SDS011;19946;49.306;11.350;2022-12-17T21:59:03;19.45;;;18.95;;
595;SDS011;19946;49.306;11.350;2022-12-17T22:02:05;19.60;;;19.10;;
595;SDS011;19946;49.306;11.350;2022-12-17T22:05:09;20.63;;;20.02;;
595;SDS011;19946;49.306;11.350;2022-12-17T22:08:10;21.63;;;21.02;;
595;SDS011;19946;49.306;11.350;2022-12-17T22:11:13;21.73;;;21.13;;
595;SDS011;19946;49.306;11.350;2022-12-17T22:14:22;21.70;;;21.10;;
595;SDS011;19946;49.306;11.350;2022-12-17T22:17:23;18.33;;;17.83;;
595;SDS011;19946;49.306;11.350;2022-12-17T22:20:25;18.63;;;18.13;;
595;SDS011;19946;49.306;11.350;2022-12-17T22:23:26;19.80;;;19.30;;
595;SDS011;19946;49.306;11.350;2022-12-17T22:26:27;19.60;;;19.10;;
595;SDS011;19946;49.306;11.350;2022-12-17T22:29:29;19.00;;;18.50;;
595;SDS011;19946;49.306;11.350;2022-12-17T22:33:03;19.00;;;18.50;;
595;SDS011;19946;49.306;11.350;2022-12-17T22:36:05;20.83;;;20.23;;
595;SDS011;19946;49.306;11.350;2022-12-17T22:39:08;19.77;;;19.27;;
595;SDS011;19946;49.306;11.350;2022-12-17T22:42:11;19.50;;;19.00;;
595;SDS011;19946;49.306;11.350;2022-12-17T22:45:33;19.60;;;19.10;;
595;SDS011;19946;49.306;11.350;2022-12-17T22:48:38;18.47;;;17.97;;
595;SDS011;19946;49.306;11.350;2022-12-17T22:51:39;18.63;;;18.13;;
595;SDS011;19946;49.306;11.350;2022-12-17T22:54:42;17.10;;;16.70;;
595;SDS011;19946;49.306;11.350;2022-12-17T22:57:43;18.10;;;17.60;;
595;SDS011;19946;49.306;11.350;2022-12-17T23:00:44;17.27;;;16.80;;
595;SDS011;19946;49.306;11.350;2022-12-17T23:03:57;18.87;;;18.37;;
595;SDS011;19946;49.306;11.350;2022-12-17T23:06:59;20.55;;;19.95;;
595;SDS011;19946;49.306;11.350;2022-12-17T23:10:01;22.70;;;22.08;;
595;SDS011;19946;49.306;11.350;2022-12-17T23:13:03;22.38;;;21.77;;
595;SDS011;19946;49.306;11.350;2022-12-17T23:16:05;24.33;;;23.63;;
595;SDS011;19946;49.306;11.350;2022-12-17T23:19:07;22.13;;;21.52;;
595;SDS011;19946;49.306;11.350;2022-12-17T23:22:13;21.77;;;21.17;;
595;SDS011;19946;49.306;11.350;2022-12-17T23:25:15;20.93;;;20.33;;
595;SDS011;19946;49.306;11.350;2022-12-17T23:28:16;19.25;;;18.75;;
595;SDS011;19946;49.306;11.350;2022-12-17T23:31:19;16.70;;;16.30;;
595;SDS011;19946;49.306;11.350;2022-12-17T23:34:25;20.55;;;19.95;;
595;SDS011;19946;49.306;11.350;2022-12-17T23:37:26;19.55;;;19.05;;
595;SDS011;19946;49.306;11.350;2022-12-17T23:40:29;17.23;;;16.83;;
595;SDS011;19946;49.306;11.350;2022-12-17T23:43:33;17.92;;;17.42;;
595;SDS011;19946;49.306;11.350;2022-12-17T23:46:35;18.05;;;17.55;;
595;SDS011;19946;49.306;11.350;2022-12-17T23:49:38;16.52;;;16.13;;
595;SDS011;19946;49.306;11.350;2022-12-17T23:52:39;13.65;;;13.35;;
595;SDS011;19946;49.306;11.350;2022-12-17T23:55:41;12.00;;;11.80;;
595;SDS011;19946;49.306;11.350;2022-12-17T23:58:42;11.70;;;11.50;;
